Main page
METAR-TAF:

METAR-TAF

Airports :

Caen – Carpiquet Airport

Caen, France

latitude: 49-11N, longitude: 000-27W, elevation: 78 m

Current weather observation

The report was made 17 minutes ago, at 21:30 UTC
Wind 2 kt from variable directions
Temperature 6°C
Humidity 81%
Pressure 1037 hPa
Visibility 10 km or more
Overcast at a height of 1500 ft

METAR: LFRK 222130Z AUTO VRB02KT 9999 OVC015 06/03 Q1037

Time: 22:47 (21:47 UTC)

Forecast

The report was made 7 hours and 47 minutes ago, at 14:00 UTC
Forecast valid from 22 at 15 UTC to 22 at 24 UTC
Wind 5 kt from variable directions
Visibility 10 km or more
Overcast at a height of 1800 ft
Probability 40% :
Temporary
from 22 at 15 UTC to 22 at 19 UTC
Broken clouds at a height of 1200 ft
Becoming
from 22 at 19 UTC to 22 at 21 UTC
Broken clouds at a height of 1200 ft
Temporary
from 22 at 19 UTC to 22 at 24 UTC
Visibility: 3000 m
mist

TAF: LFRK 221400Z 2215/2224 VRB05KT 9999 OVC018 PROB40 TEMPO 2215/2219 BKN012 BECMG 2219/2221 BKN012 TEMPO 2219/2224 3000 BR

Weather observations and forecasts of more than 4000 airports (METAR and TAF reports).

The available stations are represented by yellow and red dots on the map.

Hover mouse over dot to see the name of the station.

Then click to see weather observations and forecasts.

To change the map : click on the green buttons with a black cross to zoom in, on the green button with a dash to zoom out, or on the green arrows for adjacent maps.


METAR-TAF: